»·PEaware :: SWA1235 KSFO-KPDX

SWA1235 :: KSFO-KPDX

FLIGHT INFORMATION

Flight Status: Arrived
Operator:
Southwest Airlines
More flights by this operator :: More flights under this callsign
Pilot: Camron S. (27302)
Aircraft: BOEING 737-800
(B738)
More flights by this aircraft type
Origin: KSFO San Francisco Intl
United States
Destination: KPDX Portland Intl
United States
More flights between these airports :: More routes between these airports
Route: +TRUKN2 GRTFL MACHU MOXEE TMBRS2
File this flight plan on PilotEdge
Remarks:
Altitude:
(Current/Filed)
36,000ft
Speed:
(Current/Filed)
290kts
Departed: 01-Aug-20 03:32 PM
Arrived: 01-Aug-20 04:50 PM
Distance/Time
Traveled:
478nm/1:18
Distance/Time
To Go:
Arrived

Flight Plot

Page will automatically refresh every two minutes.


Map Options




Map Legend


Flown Route
Filed Route
Departure Airport
Arrival Airport
Navaid (VOR, NDB)
Fix

Horizontal Profiles

Position Reports

Time Latitude Longitude Heading Altitude Ground
Speed
01-Aug-20 15:19 37.614483 -122.383235 30 33ft 0kts
01-Aug-20 15:20 37.614483 -122.383235 30 33ft 0kts
01-Aug-20 15:21 37.614325 -122.383349 50 34ft 1kts
01-Aug-20 15:22 37.614341 -122.383648 121 33ft 0kts
01-Aug-20 15:23 37.614341 -122.383648 121 33ft 0kts
01-Aug-20 15:24 37.614341 -122.383648 121 33ft 0kts
01-Aug-20 15:25 37.613536 -122.382341 114 33ft 0kts
01-Aug-20 15:26 37.612267 -122.382458 208 34ft 14kts
01-Aug-20 15:27 37.609472 -122.383615 118 33ft 0kts
01-Aug-20 15:28 37.608422 -122.381143 118 29ft 18kts
01-Aug-20 15:29 37.608400 -122.379715 28 26ft 0kts
01-Aug-20 15:30 37.608455 -122.379678 28 27ft 0kts
01-Aug-20 15:31 37.632429 -122.363050 25 897ft 171kts
01-Aug-20 15:32 37.665016 -122.316732 57 3122ft 216kts
01-Aug-20 15:33 37.703192 -122.247350 40 5838ft 246kts
01-Aug-20 15:34 37.769928 -122.216239 357 8313ft 281kts
01-Aug-20 15:35 37.851699 -122.218163 356 10854ft 322kts
01-Aug-20 15:36 37.949346 -122.220731 356 12957ft 366kts
01-Aug-20 15:37 38.053168 -122.223480 357 15611ft 381kts
01-Aug-20 15:38 38.160048 -122.226327 357 18042ft 394kts
01-Aug-20 15:39 38.268792 -122.229234 357 20260ft 406kts
01-Aug-20 15:41 38.383233 -122.234127 353 22210ft 419kts
01-Aug-20 15:42 38.500888 -122.246905 353 24011ft 431kts
01-Aug-20 15:43 38.621682 -122.259462 353 25662ft 442kts
01-Aug-20 15:44 38.745423 -122.272382 353 27157ft 452kts
01-Aug-20 15:45 38.872042 -122.285648 353 28508ft 462kts
01-Aug-20 15:46 39.001454 -122.299258 353 29665ft 473kts
01-Aug-20 15:47 39.131848 -122.313014 352 31132ft 472kts
01-Aug-20 15:48 39.262338 -122.326838 352 32620ft 469kts
01-Aug-20 15:49 39.391552 -122.340577 352 34008ft 465kts
01-Aug-20 15:50 39.519822 -122.354266 352 35311ft 462kts
01-Aug-20 15:51 39.647369 -122.367943 352 36018ft 466kts
01-Aug-20 15:52 39.775994 -122.381757 352 36018ft 462kts
01-Aug-20 15:53 39.903860 -122.395563 352 36018ft 463kts
01-Aug-20 15:54 40.032251 -122.409468 352 36018ft 463kts
01-Aug-20 15:55 40.159021 -122.423252 352 36014ft 463kts
01-Aug-20 15:56 40.287134 -122.437235 352 36009ft 463kts
01-Aug-20 15:56 40.394031 -122.448942 352 36006ft 463kts
01-Aug-20 15:58 40.543357 -122.465359 352 36007ft 463kts
01-Aug-20 15:59 40.671163 -122.479469 352 36007ft 463kts
01-Aug-20 15:59 40.778117 -122.491317 352 36008ft 463kts
01-Aug-20 16:00 40.906161 -122.505553 352 36008ft 463kts
01-Aug-20 16:01 41.034270 -122.519849 351 36027ft 462kts
01-Aug-20 16:03 41.180420 -122.536227 351 36078ft 460kts
01-Aug-20 16:03 41.286664 -122.548186 351 36111ft 461kts
01-Aug-20 16:04 41.413210 -122.562473 351 36114ft 461kts
01-Aug-20 16:05 41.540923 -122.576753 352 36115ft 461kts
01-Aug-20 16:06 41.668759 -122.584697 353 36115ft 462kts
01-Aug-20 16:07 41.797012 -122.593092 353 36116ft 462kts
01-Aug-20 16:08 41.925410 -122.601514 353 36116ft 462kts
01-Aug-20 16:09 42.053589 -122.609956 353 36117ft 462kts
01-Aug-20 16:10 42.180754 -122.618365 353 36096ft 462kts
01-Aug-20 16:11 42.308665 -122.626858 353 36079ft 462kts
01-Aug-20 16:12 42.436900 -122.635407 353 36077ft 462kts
01-Aug-20 16:13 42.564634 -122.643957 353 36078ft 462kts
01-Aug-20 16:14 42.692877 -122.652567 352 36084ft 462kts
01-Aug-20 16:15 42.820911 -122.661200 352 36085ft 461kts
01-Aug-20 16:16 42.949130 -122.669892 351 36088ft 463kts
01-Aug-20 16:17 43.078757 -122.678720 350 36102ft 470kts
01-Aug-20 16:18 43.209026 -122.687608 350 36126ft 468kts
01-Aug-20 16:19 43.339049 -122.696539 350 36129ft 468kts
01-Aug-20 16:20 43.467799 -122.705401 350 36130ft 463kts
01-Aug-20 16:21 43.596381 -122.714317 350 36126ft 465kts
01-Aug-20 16:22 43.728028 -122.723455 350 33238ft 478kts
01-Aug-20 16:23 43.860047 -122.732673 351 29966ft 478kts
01-Aug-20 16:24 43.990227 -122.741783 352 27406ft 461kts
01-Aug-20 16:25 44.115192 -122.750594 353 24835ft 448kts
01-Aug-20 16:26 44.238619 -122.744498 0 24039ft 452kts
01-Aug-20 16:27 44.367564 -122.731723 2 19692ft 475kts
01-Aug-20 16:28 44.487598 -122.719815 1 18781ft 412kts
01-Aug-20 16:29 44.597256 -122.708922 2 17399ft 378kts
01-Aug-20 16:30 44.700748 -122.698530 2 15630ft 367kts
01-Aug-20 16:31 44.800837 -122.688458 2 13905ft 356kts
01-Aug-20 16:32 44.897928 -122.678684 3 12227ft 346kts
01-Aug-20 16:33 44.989352 -122.669449 2 11340ft 317kts
01-Aug-20 16:34 45.080861 -122.660186 1 8336ft 353kts
01-Aug-20 16:35 45.173548 -122.650700 1 7148ft 309kts
01-Aug-20 16:36 45.250942 -122.636451 20 6878ft 276kts
01-Aug-20 16:37 45.314835 -122.584231 30 5848ft 254kts
01-Aug-20 16:38 45.370844 -122.533772 30 5241ft 223kts
01-Aug-20 16:39 45.401389 -122.455902 84 4987ft 243kts
01-Aug-20 16:40 45.408268 -122.362145 84 4987ft 237kts
01-Aug-20 16:41 45.414730 -122.275772 85 4648ft 201kts
01-Aug-20 16:42 45.445503 -122.222360 351 4038ft 190kts
01-Aug-20 16:43 45.472898 -122.278059 271 4009ft 186kts
01-Aug-20 16:44 45.487854 -122.347339 297 3368ft 183kts
01-Aug-20 16:45 45.510789 -122.405884 297 2816ft 165kts
01-Aug-20 16:46 45.532874 -122.462150 298 1970ft 161kts
01-Aug-20 16:47 45.554037 -122.516161 298 1115ft 148kts
01-Aug-20 16:48 45.573701 -122.566356 298 295ft 141kts
01-Aug-20 16:49 45.586822 -122.600086 301 24ft 31kts
01-Aug-20 16:50 45.587903 -122.600371 80 24ft 0kts
01-Aug-20 16:51 45.587917 -122.600261 80 24ft 0kts

Navigation Log

Ident Type
Flight plan parsing failed, navigation log unavailable